Time;durP1;ratioP1;P1;durP2;ratioP2;P2;SDS_P1;SDS_P2;PMS_P1;PMS_P2;Temp;Humidity;BMP_temperature;BMP_pressure;BME280_temperature;BME280_humidity;BME280_pressure;Samples;Min_cycle;Max_cycle;Signal;HPM_P1;HPM_P2
2022/11/14 00:03:13;;;;;;;9.03;8.23;;;7.50;44.80;;;;;;10383034;28;20228;-70
2022/11/14 00:08:20;;;;;;;8.07;7.37;;;7.60;44.80;;;;;;10384204;28;20225;-70
2022/11/14 00:13:23;;;;;;;11.73;7.43;;;7.70;44.90;;;;;;10385325;28;20245;-70
2022/11/14 00:18:26;;;;;;;8.97;7.53;;;7.70;44.40;;;;;;10390129;28;20777;-70
2022/11/14 00:23:31;;;;;;;45.43;7.63;;;7.70;44.30;;;;;;10384070;28;20283;-70
2022/11/14 00:28:34;;;;;;;18.80;7.17;;;7.60;44.40;;;;;;10383403;28;20225;-70
2022/11/14 00:33:38;;;;;;;38.90;7.53;;;7.60;44.60;;;;;;10385328;28;20237;-70
2022/11/14 00:38:42;;;;;;;7.80;7.13;;;7.50;44.50;;;;;;10388267;28;20237;-70
2022/11/14 00:43:45;;;;;;;27.37;6.97;;;7.50;44.80;;;;;;10385184;28;20229;-70
2022/11/14 00:48:49;;;;;;;23.93;7.70;;;7.50;44.60;;;;;;10385560;28;20230;-70
2022/11/14 00:53:53;;;;;;;24.63;7.33;;;7.50;45.10;;;;;;10385967;28;20590;-70
2022/11/14 00:58:56;;;;;;;30.70;7.20;;;7.40;44.70;;;;;;10383176;28;20218;-70
2022/11/14 01:04:00;;;;;;;37.03;7.27;;;7.40;44.70;;;;;;10385483;28;20225;-70
2022/11/14 01:09:04;;;;;;;59.37;7.53;;;7.30;44.60;;;;;;10379041;28;20226;-70
2022/11/14 01:14:08;;;;;;;63.17;7.23;;;7.30;44.90;;;;;;10383919;28;20639;-70
2022/11/14 01:19:11;;;;;;;31.87;6.83;;;7.20;44.80;;;;;;10377514;28;20227;-70
2022/11/14 01:24:16;;;;;;;61.63;7.53;;;7.20;45.10;;;;;;10380653;28;20223;-71
2022/11/14 01:29:19;;;;;;;43.27;7.10;;;7.10;45.50;;;;;;10381760;28;20221;-71
2022/11/14 01:34:22;;;;;;;36.33;7.60;;;7.20;45.30;;;;;;10382930;28;20755;-71
2022/11/14 01:39:27;;;;;;;6.67;5.97;;;7.20;45.40;;;;;;10378474;28;20229;-71
2022/11/14 01:44:46;;;;;;;34.73;6.93;;;7.20;45.90;;;;;;10381843;28;20238;-71
2022/11/14 01:49:53;;;;;;;28.67;7.00;;;7.30;46.50;;;;;;10384915;28;20217;-71
2022/11/14 01:55:00;;;;;;;39.20;7.37;;;7.30;45.80;;;;;;10374206;28;20233;-71
2022/11/14 02:00:07;;;;;;;26.73;7.10;;;7.30;45.80;;;;;;10375610;28;20229;-71
2022/11/14 02:05:15;;;;;;;14.17;7.17;;;7.30;45.80;;;;;;10384981;28;20272;-71
2022/11/14 02:10:21;;;;;;;11.87;7.03;;;7.40;46.00;;;;;;10380289;28;20715;-71
2022/11/14 02:15:26;;;;;;;7.33;6.63;;;7.40;46.20;;;;;;10383492;28;20296;-71
2022/11/14 02:20:34;;;;;;;10.30;7.07;;;7.50;45.80;;;;;;10378334;28;20241;-71
2022/11/14 02:25:38;;;;;;;25.17;7.90;;;7.50;46.20;;;;;;10378272;28;20234;-71
2022/11/14 02:30:41;;;;;;;7.07;6.50;;;7.50;46.00;;;;;;10377242;28;20521;-71
2022/11/14 02:35:46;;;;;;;32.47;7.50;;;7.60;46.00;;;;;;10386805;28;20240;-71
2022/11/14 02:40:49;;;;;;;8.00;7.20;;;7.60;46.20;;;;;;10389857;28;20740;-71
2022/11/14 02:45:52;;;;;;;7.53;6.90;;;7.70;46.10;;;;;;10388111;28;20275;-71
2022/11/14 02:50:56;;;;;;;8.33;7.63;;;7.70;46.20;;;;;;10386934;28;20220;-71
2022/11/14 02:56:00;;;;;;;11.43;7.70;;;7.80;46.50;;;;;;10390246;28;20234;-71
2022/11/14 03:01:03;;;;;;;7.70;7.10;;;7.90;46.20;;;;;;10388144;28;20223;-71
2022/11/14 03:06:24;;;;;;;7.73;7.13;;;8.00;46.10;;;;;;10389267;28;20234;-71
2022/11/14 03:11:27;;;;;;;17.07;7.50;;;8.00;46.30;;;;;;10390649;28;20836;-71
2022/11/14 03:16:30;;;;;;;7.23;6.63;;;8.10;45.90;;;;;;10386883;28;20246;-71
2022/11/14 03:21:35;;;;;;;8.70;7.80;;;8.10;45.90;;;;;;10389186;28;20237;-71
2022/11/14 03:26:38;;;;;;;24.40;7.93;;;8.10;46.20;;;;;;10388639;28;20587;-70
2022/11/14 03:31:41;;;;;;;7.67;7.07;;;8.10;45.90;;;;;;10384038;28;20226;-71
2022/11/14 03:36:46;;;;;;;11.07;7.83;;;8.10;45.90;;;;;;10384044;28;20259;-71
2022/11/14 03:41:49;;;;;;;8.17;7.43;;;8.10;46.20;;;;;;10392132;28;20225;-71
2022/11/14 03:46:52;;;;;;;20.87;7.20;;;8.20;46.00;;;;;;10392160;28;20593;-71
2022/11/14 03:51:57;;;;;;;7.10;6.50;;;8.20;45.90;;;;;;10386475;28;20284;-71
2022/11/14 03:57:00;;;;;;;7.97;7.20;;;8.20;46.00;;;;;;10383692;28;20233;-71
2022/11/14 04:02:03;;;;;;;7.70;7.10;;;8.20;45.70;;;;;;10375960;28;20855;-71
2022/11/14 04:07:07;;;;;;;13.97;7.87;;;8.20;45.90;;;;;;10385495;28;20706;-71
2022/11/14 04:12:11;;;;;;;15.13;7.60;;;8.20;46.20;;;;;;10391276;28;20284;-71
2022/11/14 04:17:17;;;;;;;8.33;7.63;;;8.20;46.00;;;;;;10381029;28;20348;-71
2022/11/14 04:22:22;;;;;;;12.23;8.00;;;8.20;46.00;;;;;;10384265;28;20295;-71
2022/11/14 04:27:25;;;;;;;9.50;8.30;;;8.30;46.50;;;;;;10386928;28;20279;-71
2022/11/14 04:32:28;;;;;;;9.60;8.43;;;8.30;46.30;;;;;;10384470;28;20225;-71
2022/11/14 04:37:32;;;;;;;17.57;8.73;;;8.30;46.30;;;;;;10383568;28;20237;-71
2022/11/14 04:42:36;;;;;;;11.70;8.33;;;8.40;46.50;;;;;;10381030;28;20257;-71
2022/11/14 04:47:41;;;;;;;7.93;7.23;;;8.40;46.20;;;;;;10388986;28;20222;-71
2022/11/14 04:52:45;;;;;;;9.47;8.67;;;8.40;46.20;;;;;;10381591;28;20230;-71
2022/11/14 04:57:52;;;;;;;9.00;8.10;;;8.40;46.70;;;;;;10374721;28;20897;-71
2022/11/14 05:02:58;;;;;;;16.10;8.77;;;8.40;46.50;;;;;;10383857;28;20234;-71
2022/11/14 05:08:02;;;;;;;10.30;9.33;;;8.40;46.40;;;;;;10383550;28;20226;-71
2022/11/14 05:13:07;;;;;;;8.83;8.13;;;8.40;46.50;;;;;;10379144;28;20250;-71
2022/11/14 05:18:10;;;;;;;10.80;9.33;;;8.40;46.50;;;;;;10382006;28;20249;-71
2022/11/14 05:23:20;;;;;;;9.07;8.27;;;8.40;46.50;;;;;;10377291;28;20234;-71
2022/11/14 05:28:23;;;;;;;8.10;7.40;;;8.40;47.20;;;;;;10385078;28;20300;-71
2022/11/14 05:33:26;;;;;;;9.60;8.80;;;8.50;46.80;;;;;;10378195;28;20234;-71
2022/11/14 05:38:30;;;;;;;13.93;8.80;;;8.50;46.70;;;;;;10381947;28;20225;-71
2022/11/14 05:43:34;;;;;;;10.03;9.00;;;8.60;46.70;;;;;;10379853;28;20233;-71
2022/11/14 05:48:38;;;;;;;9.90;8.47;;;8.60;46.20;;;;;;10380308;28;20742;-71
2022/11/14 05:53:42;;;;;;;8.83;7.93;;;8.50;46.20;;;;;;10375440;28;20295;-71
2022/11/14 05:58:46;;;;;;;37.90;8.90;;;8.50;46.40;;;;;;10380639;28;20221;-71
2022/11/14 06:03:49;;;;;;;8.53;7.83;;;8.40;45.90;;;;;;10384470;28;20238;-71
2022/11/14 06:08:53;;;;;;;19.43;8.17;;;8.40;46.20;;;;;;10384922;28;20224;-71
2022/11/14 06:13:56;;;;;;;8.17;7.37;;;8.30;46.20;;;;;;10381640;28;20226;-71
2022/11/14 06:19:00;;;;;;;7.60;7.00;;;8.30;46.20;;;;;;10378778;28;20214;-71
2022/11/14 06:24:05;;;;;;;8.47;6.47;;;8.30;46.30;;;;;;10385450;28;20700;-74
2022/11/14 06:29:09;;;;;;;8.30;7.60;;;8.30;47.40;;;;;;10376571;28;20595;-71
2022/11/14 06:34:13;;;;;;;7.87;7.17;;;8.30;47.50;;;;;;10376215;28;20580;-71
2022/11/14 06:39:17;;;;;;;7.63;7.03;;;8.40;46.90;;;;;;10374764;28;20213;-71
2022/11/14 06:44:20;;;;;;;8.03;7.23;;;8.40;46.80;;;;;;10376921;28;20222;-71
2022/11/14 06:49:31;;;;;;;19.93;8.43;;;8.40;46.20;;;;;;10385640;28;20225;-73
2022/11/14 06:54:43;;;;;;;7.40;6.77;;;8.30;46.00;;;;;;10378403;28;20395;-71
2022/11/14 06:59:46;;;;;;;11.07;7.63;;;8.20;46.10;;;;;;10373417;28;20221;-71
2022/11/14 07:04:50;;;;;;;8.27;7.57;;;8.20;46.10;;;;;;10378061;28;20231;-70
2022/11/14 07:09:55;;;;;;;31.87;7.80;;;8.20;46.10;;;;;;10376303;28;20222;-70
2022/11/14 07:14:58;;;;;;;12.77;7.20;;;8.10;46.20;;;;;;10376285;28;20277;-71
2022/11/14 07:20:01;;;;;;;14.90;7.10;;;8.10;46.10;;;;;;10383594;28;20230;-71
2022/11/14 07:25:07;;;;;;;7.37;5.80;;;8.10;46.30;;;;;;10382061;28;20658;-71
2022/11/14 07:30:11;;;;;;;21.07;7.27;;;8.10;46.60;;;;;;10387551;28;20222;-71
2022/11/14 07:35:14;;;;;;;10.40;7.67;;;8.10;46.30;;;;;;10385783;28;20217;-71
2022/11/14 07:40:19;;;;;;;8.13;7.43;;;8.10;46.20;;;;;;10387798;28;20733;-71
2022/11/14 07:45:22;;;;;;;14.47;7.47;;;8.10;46.60;;;;;;10380241;28;20237;-71
2022/11/14 07:50:25;;;;;;;8.27;7.50;;;8.20;46.60;;;;;;10381901;28;20253;-71
2022/11/14 07:55:30;;;;;;;10.50;7.07;;;8.20;46.40;;;;;;10388834;28;20238;-70
2022/11/14 08:00:33;;;;;;;56.10;9.13;;;8.30;46.50;;;;;;10383086;28;20232;-70
2022/11/14 08:05:36;;;;;;;64.93;7.57;;;8.30;46.20;;;;;;10389352;28;20238;-72
2022/11/14 08:10:41;;;;;;;7.07;6.47;;;8.30;46.10;;;;;;10387483;28;20230;-71
2022/11/14 08:15:44;;;;;;;27.40;6.33;;;8.30;46.30;;;;;;10385062;28;20233;-71
2022/11/14 08:20:47;;;;;;;5.87;5.47;;;8.20;46.00;;;;;;10385388;28;20221;-71
2022/11/14 08:25:52;;;;;;;6.50;5.90;;;8.20;46.10;;;;;;10388029;28;20737;-71
2022/11/14 08:31:00;;;;;;;17.07;6.90;;;8.20;46.20;;;;;;10379566;28;20741;-71
2022/11/14 08:36:04;;;;;;;48.50;7.87;;;8.20;46.40;;;;;;10381060;28;20226;-71
2022/11/14 08:41:09;;;;;;;7.33;6.73;;;8.20;46.00;;;;;;10381805;28;20225;-71
2022/11/14 08:46:12;;;;;;;12.20;6.93;;;8.20;46.10;;;;;;10389258;28;20229;-71
2022/11/14 08:51:15;;;;;;;7.87;7.07;;;8.20;46.40;;;;;;10380393;28;20315;-71
2022/11/14 08:56:19;;;;;;;8.60;7.10;;;8.20;46.60;;;;;;10378440;28;20222;-72
2022/11/14 09:01:22;;;;;;;8.33;7.60;;;8.20;46.90;;;;;;10379193;28;20296;-71
2022/11/14 09:06:26;;;;;;;7.77;7.07;;;8.30;46.70;;;;;;10380623;28;21211;-71
2022/11/14 09:11:30;;;;;;;6.50;6.00;;;8.30;46.70;;;;;;10387450;28;20238;-71
2022/11/14 09:16:33;;;;;;;8.43;7.73;;;8.40;46.70;;;;;;10382096;28;20788;-71
2022/11/14 09:21:37;;;;;;;26.87;7.93;;;8.40;46.50;;;;;;10372953;28;20237;-71
2022/11/14 09:26:41;;;;;;;20.43;8.23;;;8.40;46.50;;;;;;10378558;28;20228;-71
2022/11/14 09:31:44;;;;;;;17.17;8.80;;;8.40;46.50;;;;;;10384914;28;20237;-71
2022/11/14 09:36:48;;;;;;;9.17;8.40;;;8.40;46.50;;;;;;10378169;28;20709;-71
2022/11/14 09:42:08;;;;;;;9.77;8.77;;;8.40;46.90;;;;;;10376987;28;20236;-71
2022/11/14 09:47:23;;;;;;;8.03;7.40;;;8.40;47.50;;;;;;10376741;28;20224;-71
2022/11/14 09:52:30;;;;;;;8.77;8.07;;;8.50;47.00;;;;;;10376494;28;20216;-71
2022/11/14 09:57:35;;;;;;;7.67;6.97;;;8.50;47.20;;;;;;10379709;28;20659;-71
2022/11/14 10:02:46;;;;;;;9.53;8.60;;;8.60;47.20;;;;;;10379058;28;20237;-71
2022/11/14 10:08:06;;;;;;;9.03;8.33;;;8.60;46.90;;;;;;10384735;28;20237;-71
2022/11/14 10:13:23;;;;;;;10.07;9.17;;;8.70;48.00;;;;;;10377793;28;20233;-71
2022/11/14 10:18:38;;;;;;;9.37;8.57;;;8.70;47.30;;;;;;10378959;28;20944;-71
2022/11/14 10:23:49;;;;;;;9.70;8.83;;;8.70;47.50;;;;;;10380016;28;20281;-71
2022/11/14 10:29:23;;;;;;;10.23;9.40;;;8.80;47.40;;;;;;10380348;28;20217;-71
2022/11/14 10:34:31;;;;;;;9.53;8.73;;;8.90;47.90;;;;;;10380787;28;20234;-71
2022/11/14 10:39:38;;;;;;;9.00;8.20;;;9.00;47.90;;;;;;10382683;28;20225;-72
2022/11/14 10:44:50;;;;;;;12.50;11.20;;;9.00;47.90;;;;;;10374516;28;20235;-72
2022/11/14 10:50:00;;;;;;;9.83;9.03;;;9.10;48.20;;;;;;10380943;28;20233;-72
2022/11/14 10:55:07;;;;;;;10.30;9.40;;;9.30;48.10;;;;;;10381165;28;20233;-71
2022/11/14 11:00:21;;;;;;;9.37;8.57;;;9.30;48.00;;;;;;10388607;28;20226;-71
2022/11/14 11:05:29;;;;;;;8.23;7.57;;;9.40;48.00;;;;;;10384971;28;20242;-72
2022/11/14 11:16:11;;;;;;;7.13;6.53;;;9.50;47.50;;;;;;10312918;28;20256;-68
2022/11/14 11:21:16;;;;;;;9.90;9.10;;;9.60;51.00;;;;;;10378973;28;20229;-71
2022/11/14 11:26:23;;;;;;;9.73;8.83;;;9.90;49.50;;;;;;10378045;28;20237;-71
2022/11/14 11:31:27;;;;;;;10.90;10.00;;;10.00;47.10;;;;;;10373772;28;20226;-71
2022/11/14 11:36:39;;;;;;;13.50;12.20;;;10.10;46.70;;;;;;10373371;28;20230;-71
2022/11/14 11:41:43;;;;;;;11.43;10.53;;;10.10;46.90;;;;;;10371334;28;20708;-71
2022/11/14 11:47:13;;;;;;;11.00;10.10;;;10.10;46.90;;;;;;10377464;28;20311;-71
2022/11/14 11:52:23;;;;;;;12.47;11.27;;;10.10;46.90;;;;;;10372109;28;20226;-71
2022/11/14 11:57:33;;;;;;;13.10;11.90;;;10.10;46.60;;;;;;10373604;28;20229;-71
2022/11/14 12:02:42;;;;;;;13.10;12.00;;;10.10;46.90;;;;;;10377410;28;20225;-71
2022/11/14 12:07:58;;;;;;;10.73;9.83;;;10.00;46.80;;;;;;10376699;28;20218;-71
2022/11/14 12:13:45;;;;;;;11.20;10.30;;;9.90;47.60;;;;;;10375781;28;20230;-71
2022/11/14 12:19:09;;;;;;;11.20;10.20;;;9.90;48.10;;;;;;10372305;28;20674;-71
2022/11/14 12:24:40;;;;;;;12.37;11.27;;;9.90;48.00;;;;;;10377702;28;20234;-71
2022/11/14 12:30:02;;;;;;;12.47;11.27;;;9.90;47.80;;;;;;10370616;28;20730;-71
2022/11/14 12:35:14;;;;;;;10.97;10.07;;;9.80;47.50;;;;;;10369965;28;20234;-71
2022/11/14 12:40:24;;;;;;;11.93;10.83;;;9.80;47.70;;;;;;10374003;28;20313;-71
2022/11/14 12:45:59;;;;;;;11.87;10.87;;;9.90;47.80;;;;;;10376674;28;20256;-71
2022/11/14 12:51:06;;;;;;;11.43;10.43;;;9.90;48.20;;;;;;10379495;28;20229;-71
2022/11/14 12:56:24;;;;;;;12.00;11.00;;;10.00;47.10;;;;;;10381790;28;20230;-71
2022/11/14 13:01:48;;;;;;;12.63;11.53;;;10.10;47.40;;;;;;10372701;28;20225;-71
2022/11/14 13:07:07;;;;;;;12.13;11.03;;;10.30;47.60;;;;;;10376825;28;20225;-71
2022/11/14 13:23:59;;;;;;;11.67;10.67;;;10.60;47.60;;;;;;10378292;28;20295;-71
2022/11/14 13:29:02;;;;;;;14.20;12.80;;;10.80;47.60;;;;;;10372918;28;20229;-71
2022/11/14 13:34:37;;;;;;;12.60;11.60;;;10.90;47.30;;;;;;10375866;28;20249;-71
2022/11/14 13:39:48;;;;;;;14.10;12.87;;;11.00;47.20;;;;;;10378250;28;20233;-71
2022/11/14 13:45:06;;;;;;;12.27;11.27;;;11.10;47.10;;;;;;10373858;28;20237;-71
2022/11/14 13:50:13;;;;;;;11.67;10.67;;;11.20;47.00;;;;;;10376383;28;20229;-71
2022/11/14 13:55:23;;;;;;;13.10;11.97;;;11.30;47.00;;;;;;10375360;28;20886;-71
2022/11/14 14:00:30;;;;;;;12.60;11.50;;;11.30;47.00;;;;;;10371780;28;20226;-71
2022/11/14 14:05:46;;;;;;;12.83;11.73;;;11.40;47.10;;;;;;10376750;28;20695;-71
2022/11/14 14:11:04;;;;;;;10.33;9.53;;;11.40;46.90;;;;;;10369498;28;20220;-71
2022/11/14 14:16:16;;;;;;;10.30;9.43;;;11.50;46.80;;;;;;10380109;28;20225;-71
2022/11/14 14:21:33;;;;;;;10.73;9.93;;;11.50;46.60;;;;;;10378434;28;20222;-71
2022/11/14 14:26:54;;;;;;;10.57;9.67;;;11.50;46.60;;;;;;10383046;28;20308;-70
2022/11/14 14:32:10;;;;;;;10.50;9.60;;;11.60;46.60;;;;;;10397645;28;20232;-71
2022/11/14 14:37:19;;;;;;;9.53;8.73;;;11.60;46.50;;;;;;10393616;28;20291;-71
2022/11/14 14:42:25;;;;;;;10.67;9.77;;;11.60;46.30;;;;;;10396999;28;20303;-71
2022/11/14 14:47:40;;;;;;;11.20;10.20;;;11.60;46.40;;;;;;10393219;28;20229;-71
2022/11/14 14:52:43;;;;;;;9.83;9.03;;;11.60;46.30;;;;;;10390313;28;20217;-71
2022/11/14 14:57:48;;;;;;;10.43;9.40;;;11.60;46.20;;;;;;10391236;28;20232;-68
2022/11/14 15:02:52;;;;;;;10.63;9.73;;;11.60;46.30;;;;;;10397170;28;20217;-68
2022/11/14 15:07:57;;;;;;;9.90;9.00;;;11.60;46.20;;;;;;10392128;28;20221;-68
2022/11/14 15:13:02;;;;;;;9.93;9.13;;;11.60;46.20;;;;;;10396030;28;20938;-68
2022/11/14 15:18:08;;;;;;;9.33;8.53;;;11.60;46.00;;;;;;10397423;28;20225;-68
2022/11/14 15:23:21;;;;;;;13.50;12.20;;;11.50;46.00;;;;;;10392094;28;20232;-68
2022/11/14 15:28:27;;;;;;;11.00;10.00;;;11.50;46.00;;;;;;10390261;28;20237;-68
2022/11/14 15:33:33;;;;;;;12.10;11.10;;;11.50;46.00;;;;;;10389392;28;20279;-68
2022/11/14 15:38:36;;;;;;;11.80;10.83;;;11.50;46.10;;;;;;10387391;28;20271;-68
2022/11/14 15:43:54;;;;;;;11.17;10.27;;;11.50;46.10;;;;;;10377252;28;20276;-68
2022/11/14 15:48:57;;;;;;;12.80;11.60;;;11.40;46.00;;;;;;10386156;28;21011;-68
2022/11/14 15:54:00;;;;;;;12.50;11.40;;;11.40;46.10;;;;;;10385309;28;20226;-68
2022/11/14 15:59:05;;;;;;;21.27;19.20;;;11.40;46.00;;;;;;10385929;28;20233;-68
2022/11/14 16:04:17;;;;;;;25.90;23.40;;;11.40;45.90;;;;;;10379382;28;20730;-68
2022/11/14 16:09:22;;;;;;;24.30;21.87;;;11.30;45.80;;;;;;10382485;28;20237;-68
2022/11/14 16:14:27;;;;;;;21.93;19.83;;;11.30;45.90;;;;;;10384441;28;20238;-68
2022/11/14 16:19:31;;;;;;;20.77;18.57;;;11.30;46.00;;;;;;10383779;28;20240;-68
2022/11/14 16:24:34;;;;;;;18.50;16.60;;;11.20;45.80;;;;;;10386454;28;20248;-76
2022/11/14 16:29:38;;;;;;;17.70;16.10;;;11.20;45.80;;;;;;10385116;28;20297;-68
2022/11/14 16:34:42;;;;;;;18.77;17.03;;;11.20;45.70;;;;;;10384501;28;20226;-70
2022/11/14 16:39:45;;;;;;;17.07;15.50;;;11.20;45.50;;;;;;10380649;28;20215;-70
2022/11/14 16:44:49;;;;;;;20.23;18.27;;;11.10;46.20;;;;;;10382398;28;20233;-70
2022/11/14 16:49:53;;;;;;;20.53;18.30;;;11.00;45.20;;;;;;10375874;28;20629;-72
2022/11/14 16:54:56;;;;;;;18.50;16.63;;;10.90;46.30;;;;;;10380408;28;20229;-69
2022/11/14 17:00:00;;;;;;;19.57;17.77;;;11.00;46.00;;;;;;10370778;28;20248;-69
2022/11/14 17:05:04;;;;;;;18.17;16.47;;;10.90;45.70;;;;;;10369937;28;20562;-69
2022/11/14 17:10:08;;;;;;;17.63;16.07;;;11.00;45.80;;;;;;10379557;28;20229;-70
2022/11/14 17:15:13;;;;;;;17.50;15.90;;;11.00;45.60;;;;;;10375900;28;20278;-69
2022/11/14 17:20:17;;;;;;;16.90;15.40;;;11.00;45.30;;;;;;10377571;28;20272;-69
2022/11/14 17:25:20;;;;;;;19.77;17.87;;;11.00;44.90;;;;;;10374515;28;20234;-69
2022/11/14 17:30:24;;;;;;;16.80;15.33;;;11.00;44.90;;;;;;10375892;28;20356;-70
2022/11/14 17:35:28;;;;;;;15.70;14.37;;;10.90;44.90;;;;;;10378229;28;20241;-70
2022/11/14 17:40:31;;;;;;;16.83;15.10;;;10.80;45.10;;;;;;10375665;28;20272;-70
2022/11/14 17:45:35;;;;;;;23.07;20.70;;;10.80;45.30;;;;;;10381608;28;20237;-70
2022/11/14 17:50:43;;;;;;;34.00;29.03;;;10.70;45.70;;;;;;10379677;28;20241;-70
2022/11/14 17:55:46;;;;;;;27.43;24.40;;;10.60;45.80;;;;;;10379768;28;20300;-70
2022/11/14 18:00:51;;;;;;;20.87;18.67;;;10.60;45.80;;;;;;10380043;28;20229;-70
2022/11/14 18:06:05;;;;;;;20.60;18.60;;;10.60;45.70;;;;;;10380031;28;20225;-70
2022/11/14 18:11:11;;;;;;;18.77;17.07;;;10.60;45.60;;;;;;10378832;28;20218;-68
2022/11/14 18:16:17;;;;;;;20.07;17.97;;;10.50;45.50;;;;;;10381470;28;20236;-67
2022/11/14 18:21:23;;;;;;;16.10;14.10;;;10.50;45.80;;;;;;10371603;28;20222;-67
2022/11/14 18:26:29;;;;;;;16.77;14.03;;;10.30;46.10;;;;;;10384527;28;20237;-67
2022/11/14 18:31:33;;;;;;;14.43;12.97;;;10.20;46.30;;;;;;10370427;28;20226;-67
2022/11/14 18:36:36;;;;;;;15.47;13.80;;;10.20;46.50;;;;;;10371805;28;20710;-68
2022/11/14 18:41:39;;;;;;;15.00;13.40;;;10.20;46.40;;;;;;10372857;28;20229;-70
2022/11/14 18:46:44;;;;;;;14.10;12.70;;;10.30;46.30;;;;;;10377647;28;20230;-75
2022/11/14 18:51:47;;;;;;;13.53;12.13;;;10.30;46.00;;;;;;10379523;28;20232;-75
2022/11/14 18:56:50;;;;;;;13.83;12.60;;;10.30;45.70;;;;;;10377696;28;20225;-75
2022/11/14 19:01:56;;;;;;;14.03;12.73;;;10.30;45.50;;;;;;10375741;28;20710;-70
2022/11/14 19:07:03;;;;;;;12.33;11.23;;;10.30;45.40;;;;;;10375163;28;20223;-69
2022/11/14 19:12:20;;;;;;;12.57;11.37;;;10.30;45.40;;;;;;10379240;28;20229;-70
2022/11/14 19:17:25;;;;;;;13.70;12.47;;;10.30;45.30;;;;;;10387120;28;20292;-70
2022/11/14 19:22:28;;;;;;;14.87;13.37;;;10.30;45.00;;;;;;10389231;28;20233;-69
2022/11/14 19:27:31;;;;;;;13.07;11.87;;;10.30;44.80;;;;;;10389953;28;20237;-69
2022/11/14 19:32:36;;;;;;;14.43;13.07;;;10.20;44.60;;;;;;10384319;28;20958;-69
2022/11/14 19:37:39;;;;;;;15.33;13.93;;;10.10;44.40;;;;;;10379466;28;20221;-70
2022/11/14 19:42:42;;;;;;;13.37;12.20;;;10.10;44.70;;;;;;10380177;28;20592;-70
2022/11/14 19:47:46;;;;;;;18.77;16.93;;;10.10;44.60;;;;;;10383880;28;20734;-69
2022/11/14 19:52:50;;;;;;;17.67;16.03;;;10.00;44.60;;;;;;10376485;28;20222;-70
2022/11/14 19:57:54;;;;;;;14.73;13.33;;;10.00;44.80;;;;;;10383461;28;20219;-69
2022/11/14 20:02:58;;;;;;;13.63;12.23;;;9.90;45.90;;;;;;10386108;28;20723;-68
2022/11/14 20:08:01;;;;;;;14.63;13.23;;;9.90;45.90;;;;;;10384276;28;20233;-68
2022/11/14 20:13:04;;;;;;;12.87;10.93;;;9.90;46.00;;;;;;10380725;28;20664;-69
2022/11/14 20:18:09;;;;;;;16.90;15.30;;;9.80;45.90;;;;;;10380167;28;20229;-69
2022/11/14 20:23:13;;;;;;;23.77;21.23;;;9.80;46.00;;;;;;10387323;28;20260;-69
2022/11/14 20:28:16;;;;;;;21.13;18.83;;;9.80;45.80;;;;;;10380259;28;20233;-70
2022/11/14 20:33:20;;;;;;;18.70;16.77;;;9.70;45.70;;;;;;10386678;28;20229;-68
2022/11/14 20:38:24;;;;;;;15.20;13.67;;;9.70;45.80;;;;;;10382963;28;21007;-69
2022/11/14 20:43:28;;;;;;;14.33;12.93;;;9.70;45.80;;;;;;10370916;28;20229;-69
2022/11/14 20:48:34;;;;;;;14.40;12.90;;;9.70;45.60;;;;;;10384885;28;20237;-68
2022/11/14 20:53:38;;;;;;;14.03;12.73;;;9.60;45.40;;;;;;10375658;28;20299;-69
2022/11/14 20:58:41;;;;;;;11.63;10.43;;;9.60;45.70;;;;;;10397421;28;20237;-69
2022/11/14 21:03:46;;;;;;;11.70;10.60;;;9.60;45.40;;;;;;10381525;28;20614;-68
2022/11/14 21:08:49;;;;;;;10.80;9.80;;;9.50;45.30;;;;;;10376802;28;20749;-68
2022/11/14 21:13:56;;;;;;;12.47;11.20;;;9.50;45.50;;;;;;10384227;28;20225;-68
2022/11/14 21:19:01;;;;;;;11.83;10.70;;;9.50;45.40;;;;;;10369806;28;20260;-69
2022/11/14 21:24:05;;;;;;;11.63;10.53;;;9.40;45.20;;;;;;10359488;28;20242;-69
2022/11/14 21:29:11;;;;;;;12.13;10.93;;;9.40;45.40;;;;;;10368831;28;20713;-69
2022/11/14 21:34:16;;;;;;;14.13;12.63;;;9.40;45.30;;;;;;10380281;28;20226;-69
2022/11/14 21:39:20;;;;;;;10.70;9.77;;;9.40;45.10;;;;;;10375461;28;20225;-69
2022/11/14 21:44:24;;;;;;;12.80;11.57;;;9.30;45.20;;;;;;10367136;28;20238;-69
2022/11/14 21:49:28;;;;;;;13.07;11.77;;;9.30;45.30;;;;;;10376567;28;20234;-69
2022/11/14 21:54:32;;;;;;;12.43;11.23;;;9.30;45.20;;;;;;10377633;28;20221;-69
2022/11/14 21:59:35;;;;;;;13.73;12.33;;;9.20;45.20;;;;;;10372515;28;20838;-69
2022/11/14 22:04:39;;;;;;;13.23;12.00;;;9.20;45.40;;;;;;10374573;28;20226;-69
2022/11/14 22:09:43;;;;;;;11.20;10.10;;;9.20;45.40;;;;;;10378101;28;20269;-69
2022/11/14 22:14:47;;;;;;;12.37;11.13;;;9.20;45.30;;;;;;10377047;28;20308;-75
2022/11/14 22:19:52;;;;;;;11.23;10.07;;;9.20;45.30;;;;;;10374481;28;20229;-75
2022/11/14 22:24:55;;;;;;;11.47;10.37;;;9.10;45.40;;;;;;10371714;28;20226;-75
2022/11/14 22:29:58;;;;;;;11.63;10.47;;;9.10;45.50;;;;;;10380120;28;20232;-69
2022/11/14 22:35:03;;;;;;;11.60;10.60;;;9.00;45.60;;;;;;10374542;28;20222;-69
2022/11/14 22:40:07;;;;;;;11.57;9.87;;;9.00;45.80;;;;;;10376590;28;20226;-69
2022/11/14 22:45:10;;;;;;;11.10;9.77;;;9.00;45.50;;;;;;10379410;28;20245;-67
2022/11/14 22:50:15;;;;;;;11.07;8.70;;;9.00;45.40;;;;;;10383829;28;20236;-74
2022/11/14 22:55:18;;;;;;;8.87;8.00;;;9.00;45.40;;;;;;10391322;28;20229;-74
2022/11/14 23:00:22;;;;;;;10.13;9.23;;;8.90;45.40;;;;;;10382985;28;20233;-74
2022/11/14 23:05:26;;;;;;;10.20;9.30;;;8.90;45.50;;;;;;10386943;28;20772;-75
2022/11/14 23:10:29;;;;;;;9.47;8.47;;;8.80;45.30;;;;;;10389025;28;20237;-70
2022/11/14 23:15:33;;;;;;;9.47;8.57;;;8.80;45.60;;;;;;10383721;28;20245;-70
2022/11/14 23:20:37;;;;;;;7.40;6.77;;;8.70;45.40;;;;;;10386087;28;20240;-71
2022/11/14 23:25:40;;;;;;;8.53;7.73;;;8.70;45.40;;;;;;10381576;28;20233;-70
2022/11/14 23:30:43;;;;;;;11.97;10.73;;;8.70;45.50;;;;;;10385559;28;20222;-69
2022/11/14 23:35:48;;;;;;;10.90;9.80;;;8.70;45.80;;;;;;10387639;28;20230;-74
2022/11/14 23:40:55;;;;;;;9.63;8.67;;;8.70;45.80;;;;;;10390949;28;20225;-75
2022/11/14 23:45:58;;;;;;;9.30;8.40;;;8.60;45.40;;;;;;10389110;28;20229;-70
2022/11/14 23:51:03;;;;;;;8.93;8.07;;;8.60;45.50;;;;;;10387673;28;20226;-70
2022/11/14 23:56:06;;;;;;;8.90;8.00;;;8.60;45.60;;;;;;10386283;28;20701;-70
